createdAt,value
2019-01-30T00:00:41.175Z,-0.11
2019-01-30T00:03:08.034Z,0.22
2019-01-30T00:05:34.870Z,0.03
2019-01-30T00:08:01.722Z,-0.29
2019-01-30T00:10:28.563Z,-0.20
2019-01-30T00:12:55.405Z,-0.34
2019-01-30T00:15:22.259Z,-0.12
2019-01-30T00:17:49.105Z,-0.35
2019-01-30T00:20:15.942Z,-0.13
2019-01-30T00:22:42.786Z,-0.14
2019-01-30T00:25:09.668Z,-0.35
2019-01-30T00:27:36.510Z,-0.10
2019-01-30T00:30:05.176Z,-0.18
2019-01-30T00:32:32.030Z,-0.30
2019-01-30T00:34:58.857Z,-0.23
2019-01-30T00:37:25.721Z,-0.35
2019-01-30T00:39:52.551Z,-0.20
2019-01-30T00:42:19.473Z,-0.44
2019-01-30T00:44:46.315Z,-0.18
2019-01-30T00:47:15.977Z,-0.07
2019-01-30T00:49:39.998Z,-0.32
2019-01-30T00:52:06.854Z,-0.02
2019-01-30T00:54:33.681Z,-0.03
2019-01-30T00:57:00.616Z,-0.09
2019-01-30T00:59:27.372Z,0.10
2019-01-30T01:01:54.211Z,0.15
2019-01-30T01:04:21.058Z,-0.04
2019-01-30T01:06:47.892Z,-0.05
2019-01-30T01:09:14.734Z,-0.04
2019-01-30T01:11:41.566Z,-0.27
2019-01-30T01:14:08.418Z,-0.21
2019-01-30T01:16:35.246Z,-0.25
2019-01-30T01:19:02.092Z,-0.45
2019-01-30T01:21:28.914Z,-0.26
2019-01-30T01:23:55.758Z,-0.17
2019-01-30T01:26:22.658Z,-0.34
2019-01-30T01:28:49.518Z,-0.26
2019-01-30T01:31:16.357Z,-0.01
2019-01-30T01:33:43.202Z,-0.22
2019-01-30T01:36:10.045Z,-0.21
2019-01-30T01:38:36.901Z,-0.11
2019-01-30T01:41:03.739Z,-0.27
2019-01-30T01:43:30.590Z,-0.24
2019-01-30T01:45:57.423Z,-0.22
2019-01-30T01:48:24.258Z,-0.27
2019-01-30T01:50:51.086Z,-0.16
2019-01-30T01:53:17.950Z,-0.15
2019-01-30T01:55:44.810Z,-0.23
2019-01-30T01:58:11.649Z,-0.08
2019-01-30T02:00:38.529Z,-0.03
2019-01-30T02:03:05.381Z,-0.13
2019-01-30T02:05:32.214Z,-0.04
2019-01-30T02:07:59.052Z,0.04
2019-01-30T02:10:25.914Z,-0.06
2019-01-30T02:12:52.742Z,0.12
2019-01-30T02:15:20.750Z,0.37
2019-01-30T02:17:47.569Z,0.04
2019-01-30T02:20:18.654Z,0.50
2019-01-30T02:22:45.482Z,0.46
2019-01-30T02:25:12.333Z,0.32
2019-01-30T02:27:39.166Z,0.29
2019-01-30T02:30:09.928Z,0.44
2019-01-30T02:32:36.784Z,0.32
2019-01-30T02:35:03.821Z,0.56
2019-01-30T02:37:30.658Z,0.65
2019-01-30T02:39:57.514Z,0.50
2019-01-30T02:42:24.339Z,0.63
2019-01-30T02:44:51.174Z,0.61
2019-01-30T02:47:18.007Z,0.39
2019-01-30T02:49:44.863Z,0.55
2019-01-30T02:52:11.691Z,0.50
2019-01-30T02:54:38.534Z,0.31
2019-01-30T02:57:05.363Z,0.41
2019-01-30T02:59:32.206Z,0.64
2019-01-30T03:02:18.647Z,0.58
2019-01-30T03:04:45.495Z,0.77
2019-01-30T03:07:12.418Z,0.53
2019-01-30T03:09:39.268Z,0.65
2019-01-30T03:12:06.101Z,0.66
2019-01-30T03:14:32.945Z,0.47
2019-01-30T03:16:59.781Z,0.75
2019-01-30T03:19:26.626Z,0.54
2019-01-30T03:21:53.463Z,0.66
2019-01-30T03:24:20.312Z,0.60
2019-01-30T03:26:47.148Z,0.64
2019-01-30T03:29:14.003Z,0.67
2019-01-30T03:31:40.855Z,0.65
2019-01-30T03:34:07.702Z,0.43
2019-01-30T03:36:34.533Z,0.69
2019-01-30T03:39:01.386Z,0.80
2019-01-30T03:41:28.209Z,0.61
2019-01-30T03:43:55.055Z,0.84
2019-01-30T03:46:21.950Z,0.81
2019-01-30T03:48:48.780Z,1.08
2019-01-30T03:51:15.622Z,0.88
2019-01-30T03:53:42.467Z,1.12
2019-01-30T03:56:09.318Z,0.92
2019-01-30T03:58:36.145Z,1.22
2019-01-30T04:01:02.987Z,1.41
2019-01-30T04:03:29.817Z,1.05
2019-01-30T04:05:56.753Z,1.37
2019-01-30T04:08:23.503Z,1.07
2019-01-30T04:10:50.354Z,1.02
2019-01-30T04:13:17.182Z,0.97
2019-01-30T04:15:44.029Z,0.72
2019-01-30T04:18:10.861Z,0.88
2019-01-30T04:20:37.710Z,1.03
2019-01-30T04:23:04.662Z,0.97
2019-01-30T04:25:31.520Z,1.24
2019-01-30T04:27:58.342Z,1.22
2019-01-30T04:30:25.194Z,1.03
2019-01-30T04:32:52.057Z,1.19
2019-01-30T04:35:18.909Z,0.89
2019-01-30T04:37:45.738Z,1.02
2019-01-30T04:40:14.549Z,1.18
2019-01-30T04:42:41.389Z,1.01
2019-01-30T04:45:10.511Z,1.31
2019-01-30T04:47:37.359Z,1.51
2019-01-30T04:50:04.785Z,1.10
2019-01-30T04:52:31.621Z,1.19
2019-01-30T04:54:58.470Z,0.96
2019-01-30T04:57:25.314Z,1.12
2019-01-30T04:59:52.175Z,0.91
2019-01-30T05:02:19.003Z,0.91
2019-01-30T05:04:45.873Z,0.97
2019-01-30T05:07:12.699Z,1.08
2019-01-30T05:09:39.541Z,1.31
2019-01-30T05:12:06.374Z,1.14
2019-01-30T05:14:33.314Z,1.11
2019-01-30T05:17:00.146Z,0.89
2019-01-30T05:19:27.002Z,1.04
2019-01-30T05:21:53.839Z,1.16
2019-01-30T05:24:20.691Z,1.37
2019-01-30T05:26:47.664Z,1.33
2019-01-30T05:29:14.515Z,1.20
2019-01-30T05:31:41.370Z,1.10
2019-01-30T05:34:08.198Z,1.10
2019-01-30T05:36:35.046Z,1.22
2019-01-30T05:39:01.883Z,1.00
2019-01-30T05:41:28.730Z,1.08
2019-01-30T05:43:55.604Z,1.14
2019-01-30T05:46:22.450Z,1.33
2019-01-30T05:48:49.294Z,1.33
2019-01-30T05:51:16.235Z,1.16
2019-01-30T05:53:43.071Z,1.40
2019-01-30T05:56:11.803Z,1.29
2019-01-30T05:58:38.684Z,1.55
2019-01-30T06:01:05.542Z,1.32
2019-01-30T06:03:32.826Z,1.33
2019-01-30T06:05:59.698Z,1.38
2019-01-30T06:08:26.542Z,1.41
2019-01-30T06:10:53.405Z,1.11
2019-01-30T06:13:20.264Z,1.23
2019-01-30T06:15:47.187Z,1.25
2019-01-30T06:18:14.014Z,1.18
2019-01-30T06:20:40.878Z,0.97
2019-01-30T06:23:07.725Z,1.25
2019-01-30T06:25:34.570Z,1.06
2019-01-30T06:28:01.402Z,1.49
2019-01-30T06:30:28.261Z,1.45
2019-01-30T06:32:55.106Z,1.09
2019-01-30T06:35:21.983Z,1.33
2019-01-30T06:37:48.813Z,1.27
2019-01-30T06:40:19.797Z,1.54
2019-01-30T06:42:46.623Z,1.48
2019-01-30T06:45:13.493Z,1.68
2019-01-30T06:47:40.330Z,1.40
2019-01-30T06:50:07.729Z,1.74
2019-01-30T06:52:34.589Z,1.67
2019-01-30T06:55:01.426Z,2.04
2019-01-30T06:57:28.277Z,1.87
2019-01-30T06:59:55.123Z,2.17
2019-01-30T07:02:31.829Z,1.93
2019-01-30T07:04:49.205Z,2.32
2019-01-30T07:07:16.094Z,2.06
2019-01-30T07:09:42.922Z,2.38
2019-01-30T07:12:09.786Z,2.11
2019-01-30T07:14:36.625Z,2.30
2019-01-30T07:17:03.505Z,2.06
2019-01-30T07:19:30.350Z,2.11
2019-01-30T07:21:57.206Z,2.45
2019-01-30T07:24:24.050Z,2.19
2019-01-30T07:26:50.923Z,2.23
2019-01-30T07:29:17.754Z,2.27
2019-01-30T07:31:44.623Z,2.09
2019-01-30T07:34:11.444Z,2.33
2019-01-30T07:36:38.302Z,2.36
2019-01-30T07:39:07.735Z,2.33
2019-01-30T07:41:34.588Z,2.33
2019-01-30T07:44:01.430Z,2.29
2019-01-30T07:46:28.278Z,2.30
2019-01-30T07:48:55.122Z,2.32
2019-01-30T07:51:21.980Z,2.50
2019-01-30T07:53:48.811Z,2.51
2019-01-30T07:56:15.653Z,2.83
2019-01-30T07:58:42.482Z,2.58
2019-01-30T08:01:09.322Z,2.75
2019-01-30T08:03:36.157Z,2.59
2019-01-30T08:06:03.003Z,2.71
2019-01-30T08:08:29.858Z,2.59
2019-01-30T08:10:56.710Z,2.79
2019-01-30T08:13:23.531Z,2.77
2019-01-30T08:15:50.370Z,2.79
2019-01-30T08:18:17.222Z,2.83
2019-01-30T08:20:44.050Z,2.97
2019-01-30T08:23:10.931Z,3.09
2019-01-30T08:25:37.879Z,2.76
2019-01-30T08:28:04.686Z,2.87
2019-01-30T08:30:31.535Z,3.03
2019-01-30T08:33:04.666Z,3.34
2019-01-30T08:35:26.777Z,3.12
2019-01-30T08:37:53.622Z,3.15
2019-01-30T08:40:20.458Z,2.97
2019-01-30T08:42:47.413Z,3.22
2019-01-30T08:45:17.813Z,3.27
2019-01-30T08:47:44.680Z,3.25
2019-01-30T08:50:11.654Z,3.10
2019-01-30T08:52:38.500Z,2.87
2019-01-30T08:55:05.406Z,2.90
2019-01-30T08:57:32.263Z,2.95
2019-01-30T08:59:59.095Z,3.19
2019-01-30T09:02:25.942Z,3.22
2019-01-30T09:04:52.779Z,3.44
2019-01-30T09:07:19.706Z,3.09
2019-01-30T09:09:46.854Z,3.08
2019-01-30T09:12:13.706Z,2.99
2019-01-30T09:14:40.549Z,3.08
2019-01-30T09:17:08.770Z,3.07
2019-01-30T09:19:34.234Z,3.26
2019-01-30T09:22:01.086Z,3.25
2019-01-30T09:24:27.936Z,3.26
2019-01-30T09:26:54.786Z,3.27
2019-01-30T09:29:21.616Z,3.33
2019-01-30T09:31:48.465Z,3.46
2019-01-30T09:34:15.286Z,3.46
2019-01-30T09:36:42.110Z,3.65
2019-01-30T09:39:08.972Z,3.70
2019-01-30T09:41:35.837Z,3.70
2019-01-30T09:44:02.715Z,4.06
2019-01-30T09:46:29.542Z,3.85
2019-01-30T09:48:56.397Z,3.83
2019-01-30T09:51:23.234Z,3.75
2019-01-30T09:53:50.090Z,3.58
2019-01-30T09:56:16.921Z,3.68
2019-01-30T09:58:43.774Z,3.70
2019-01-30T10:01:10.614Z,3.57
2019-01-30T10:03:37.467Z,3.46
2019-01-30T10:06:04.316Z,3.38
2019-01-30T10:08:31.165Z,3.38
2019-01-30T10:10:58.015Z,3.46
2019-01-30T10:13:24.873Z,3.43
2019-01-30T10:15:51.710Z,3.41
2019-01-30T10:18:18.568Z,3.54
2019-01-30T10:20:46.414Z,3.41
2019-01-30T10:23:13.261Z,3.43
2019-01-30T10:25:40.118Z,3.50
2019-01-30T10:28:16.197Z,3.51
2019-01-30T10:30:35.423Z,3.57
2019-01-30T10:33:02.271Z,3.60
2019-01-30T10:35:29.098Z,3.70
2019-01-30T10:37:55.951Z,3.76
2019-01-30T10:40:22.781Z,3.81
2019-01-30T10:42:49.679Z,3.97
2019-01-30T10:45:16.654Z,3.93
2019-01-30T10:47:43.548Z,3.86
2019-01-30T10:50:12.019Z,3.72
2019-01-30T10:52:38.996Z,3.84
2019-01-30T10:55:08.255Z,3.84
2019-01-30T10:57:35.119Z,3.84
2019-01-30T11:00:01.946Z,3.91
2019-01-30T11:02:28.779Z,3.86
2019-01-30T11:04:55.639Z,3.77
2019-01-30T11:07:22.482Z,3.80
2019-01-30T11:09:49.358Z,3.77
2019-01-30T11:12:16.182Z,4.05
2019-01-30T11:14:43.046Z,3.82
2019-01-30T11:17:09.878Z,3.67
2019-01-30T11:19:36.739Z,3.65
2019-01-30T11:22:03.571Z,3.74
2019-01-30T11:24:30.426Z,3.60
2019-01-30T11:26:57.266Z,3.44
2019-01-30T11:29:24.125Z,3.39
2019-01-30T11:31:50.954Z,3.60
2019-01-30T11:34:17.802Z,3.39
2019-01-30T11:36:44.629Z,3.18
2019-01-30T11:39:11.489Z,3.26
2019-01-30T11:41:38.321Z,3.23
2019-01-30T11:44:05.207Z,3.31
2019-01-30T11:46:32.091Z,3.68
2019-01-30T11:48:58.930Z,3.79
2019-01-30T11:51:25.784Z,3.26
2019-01-30T11:53:52.630Z,3.26
2019-01-30T11:56:19.478Z,3.12
2019-01-30T11:58:46.314Z,3.23
2019-01-30T12:01:13.170Z,3.35
2019-01-30T12:03:40.022Z,3.07
2019-01-30T12:06:06.862Z,3.13
2019-01-30T12:08:33.722Z,3.12
2019-01-30T12:11:00.558Z,3.12
2019-01-30T12:13:27.438Z,3.21
2019-01-30T12:15:54.273Z,3.01
2019-01-30T12:18:21.126Z,2.81
2019-01-30T12:20:48.081Z,2.80
2019-01-30T12:23:14.926Z,2.77
2019-01-30T12:25:41.820Z,2.80
2019-01-30T12:28:08.683Z,2.59
2019-01-30T12:30:35.522Z,2.58
2019-01-30T12:33:02.379Z,2.62
2019-01-30T12:35:29.206Z,2.49
2019-01-30T12:37:56.064Z,2.70
2019-01-30T12:40:22.906Z,2.62
2019-01-30T12:42:49.758Z,2.38
2019-01-30T12:45:27.128Z,2.28
2019-01-30T12:47:53.990Z,2.32
2019-01-30T12:50:21.033Z,2.49
2019-01-30T12:52:48.886Z,2.45
2019-01-30T12:55:15.702Z,2.63
2019-01-30T12:57:42.762Z,2.65
2019-01-30T13:00:14.314Z,2.47
2019-01-30T13:02:41.456Z,2.38
2019-01-30T13:05:08.285Z,2.32
2019-01-30T13:07:35.146Z,2.16
2019-01-30T13:10:01.995Z,2.36
2019-01-30T13:12:28.958Z,2.23
2019-01-30T13:14:55.790Z,2.25
2019-01-30T13:17:22.670Z,2.61
2019-01-30T13:19:49.505Z,2.49
2019-01-30T13:22:16.366Z,2.54
2019-01-30T13:24:43.200Z,2.43
2019-01-30T13:27:10.061Z,2.46
2019-01-30T13:29:37.035Z,2.33
2019-01-30T13:32:03.921Z,2.29
2019-01-30T13:34:30.822Z,2.20
2019-01-30T13:36:57.705Z,2.45
2019-01-30T13:39:24.682Z,2.48
2019-01-30T13:41:52.740Z,2.51
2019-01-30T13:44:18.711Z,2.53
2019-01-30T13:46:45.594Z,2.71
2019-01-30T13:49:12.649Z,2.63
2019-01-30T13:51:39.568Z,2.56
2019-01-30T13:54:06.528Z,2.47
2019-01-30T13:56:33.402Z,2.38
2019-01-30T13:59:00.290Z,2.42
2019-01-30T14:01:27.495Z,2.35
2019-01-30T14:03:54.356Z,2.06
2019-01-30T14:06:21.219Z,2.34
2019-01-30T14:08:48.046Z,2.28
2019-01-30T14:11:14.890Z,2.13
2019-01-30T14:13:41.763Z,2.28
2019-01-30T14:16:08.578Z,2.06
2019-01-30T14:18:35.422Z,2.01
2019-01-30T14:21:02.300Z,1.87
2019-01-30T14:23:29.122Z,1.86
2019-01-30T14:25:55.953Z,1.62
2019-01-30T14:28:22.805Z,1.62
2019-01-30T14:30:49.715Z,1.74
2019-01-30T14:33:17.786Z,2.04
2019-01-30T14:35:45.710Z,1.92
2019-01-30T14:38:12.528Z,2.00
2019-01-30T14:40:39.510Z,2.26
2019-01-30T14:43:06.439Z,2.13
2019-01-30T14:45:33.273Z,2.09
2019-01-30T14:48:00.254Z,2.16
2019-01-30T14:50:27.146Z,1.78
2019-01-30T14:52:53.989Z,1.75
2019-01-30T14:55:20.917Z,1.82
2019-01-30T14:57:47.960Z,1.78
2019-01-30T15:00:18.020Z,1.74
2019-01-30T15:02:44.853Z,1.76
2019-01-30T15:05:21.924Z,1.66
2019-01-30T15:07:39.032Z,1.83
2019-01-30T15:10:07.099Z,1.61
2019-01-30T15:12:33.963Z,1.67
2019-01-30T15:15:00.798Z,1.61
2019-01-30T15:17:27.682Z,1.70
2019-01-30T15:19:54.580Z,1.63
2019-01-30T15:22:21.430Z,1.60
2019-01-30T15:24:48.278Z,1.65
2019-01-30T15:27:15.109Z,1.61
2019-01-30T15:29:42.038Z,1.69
2019-01-30T15:32:08.918Z,1.71
2019-01-30T15:34:35.771Z,1.68
2019-01-30T15:37:02.601Z,1.68
2019-01-30T15:39:29.496Z,1.58
2019-01-30T15:41:56.363Z,1.59
2019-01-30T15:44:23.315Z,1.58
2019-01-30T15:46:50.154Z,1.54
2019-01-30T15:49:17.023Z,1.52
2019-01-30T15:51:43.850Z,1.50
2019-01-30T15:54:10.702Z,1.41
2019-01-30T15:56:37.521Z,1.43
2019-01-30T15:59:05.522Z,1.43
2019-01-30T16:01:36.461Z,1.41
2019-01-30T16:04:05.983Z,1.31
2019-01-30T16:06:30.196Z,1.28
2019-01-30T16:08:57.058Z,1.26
2019-01-30T16:11:23.891Z,1.23
2019-01-30T16:13:50.747Z,1.30
2019-01-30T16:16:17.599Z,1.19
2019-01-30T16:18:44.441Z,1.19
2019-01-30T16:21:11.283Z,1.22
2019-01-30T16:23:38.192Z,1.25
2019-01-30T16:26:05.041Z,1.29
2019-01-30T16:28:31.890Z,1.29
2019-01-30T16:30:58.738Z,1.25
2019-01-30T16:33:25.567Z,1.37
2019-01-30T16:35:56.286Z,1.30
2019-01-30T16:38:19.274Z,1.29
2019-01-30T16:40:46.130Z,1.22
2019-01-30T16:43:13.006Z,1.23
2019-01-30T16:45:39.803Z,1.23
2019-01-30T16:48:07.154Z,1.31
2019-01-30T16:50:34.488Z,1.38
2019-01-30T16:53:01.022Z,1.38
2019-01-30T16:55:27.904Z,1.46
2019-01-30T16:57:54.798Z,1.32
2019-01-30T17:00:24.550Z,1.36
2019-01-30T17:02:51.386Z,1.35
2019-01-30T17:05:18.338Z,1.42
2019-01-30T17:07:45.239Z,1.43
2019-01-30T17:10:12.114Z,1.45
2019-01-30T17:12:38.951Z,1.37
2019-01-30T17:15:08.143Z,1.36
2019-01-30T17:17:34.986Z,1.31
2019-01-30T17:20:01.919Z,1.31
2019-01-30T17:22:28.857Z,1.33
2019-01-30T17:24:55.709Z,1.33
2019-01-30T17:27:22.559Z,1.34
2019-01-30T17:29:49.508Z,1.33
2019-01-30T17:32:16.346Z,1.31
2019-01-30T17:34:43.206Z,1.36
2019-01-30T17:37:10.142Z,1.32
2019-01-30T17:39:37.002Z,1.33
2019-01-30T17:42:04.004Z,1.34
2019-01-30T17:44:30.838Z,1.29
2019-01-30T17:46:57.691Z,1.35
2019-01-30T17:49:24.536Z,1.35
2019-01-30T17:51:51.578Z,1.46
2019-01-30T17:54:18.415Z,1.43
2019-01-30T17:56:45.358Z,1.49
2019-01-30T17:59:12.201Z,1.32
2019-01-30T18:01:39.066Z,1.43
2019-01-30T18:04:05.980Z,1.37
2019-01-30T18:06:32.853Z,1.54
2019-01-30T18:08:59.744Z,1.59
2019-01-30T18:11:26.697Z,1.62
2019-01-30T18:13:53.527Z,1.61
2019-01-30T18:16:20.696Z,1.55
2019-01-30T18:18:47.561Z,1.69
2019-01-30T18:21:14.422Z,1.60
2019-01-30T18:23:41.347Z,1.40
2019-01-30T18:26:08.212Z,1.45
2019-01-30T18:28:35.420Z,1.50
2019-01-30T18:31:02.297Z,1.47
2019-01-30T18:33:29.143Z,1.52
2019-01-30T18:35:56.976Z,1.51
2019-01-30T18:38:23.841Z,1.53
2019-01-30T18:40:50.707Z,1.45
2019-01-30T18:43:17.631Z,1.59
2019-01-30T18:45:44.498Z,1.50
2019-01-30T18:48:11.373Z,1.55
2019-01-30T18:50:38.247Z,1.61
2019-01-30T18:53:05.138Z,1.51
2019-01-30T18:55:32.020Z,1.40
2019-01-30T18:57:58.869Z,1.58
2019-01-30T19:00:30.726Z,1.50
2019-01-30T19:02:59.046Z,1.67
2019-01-30T19:05:25.946Z,1.62
2019-01-30T19:07:52.799Z,1.74
2019-01-30T19:10:19.666Z,1.62
2019-01-30T19:12:46.704Z,1.90
2019-01-30T19:15:15.939Z,1.68
2019-01-30T19:17:42.785Z,1.86
2019-01-30T19:20:12.783Z,1.86
2019-01-30T19:22:39.631Z,1.89
2019-01-30T19:25:06.567Z,1.74
2019-01-30T19:27:33.423Z,1.84
2019-01-30T19:30:00.325Z,1.94
2019-01-30T19:32:27.175Z,1.83
2019-01-30T19:34:53.944Z,1.98
2019-01-30T19:37:20.830Z,1.83
2019-01-30T19:39:47.669Z,2.01
2019-01-30T19:42:14.921Z,1.89
2019-01-30T19:44:41.747Z,1.92
2019-01-30T19:47:08.590Z,1.75
2019-01-30T19:49:35.473Z,1.91
2019-01-30T19:52:02.319Z,1.72
2019-01-30T19:54:29.250Z,2.02
2019-01-30T19:56:56.110Z,1.77
2019-01-30T19:59:22.962Z,1.78
2019-01-30T20:01:49.854Z,1.85
2019-01-30T20:04:16.728Z,1.79
2019-01-30T20:06:43.566Z,2.00
2019-01-30T20:09:19.811Z,1.88
2019-01-30T20:11:46.667Z,1.79
2019-01-30T20:14:13.520Z,1.84
2019-01-30T20:16:40.379Z,1.78
2019-01-30T20:19:07.337Z,1.84
2019-01-30T20:21:34.222Z,1.96
2019-01-30T20:24:01.139Z,2.11
2019-01-30T20:26:27.986Z,1.79
2019-01-30T20:28:54.838Z,2.08
2019-01-30T20:31:21.693Z,1.69
2019-01-30T20:33:48.564Z,1.59
2019-01-30T20:36:15.434Z,1.43
2019-01-30T20:38:42.288Z,1.55
2019-01-30T20:41:09.234Z,1.69
2019-01-30T20:43:36.082Z,1.47
2019-01-30T20:46:02.924Z,1.70
2019-01-30T20:48:29.774Z,1.39
2019-01-30T20:50:56.606Z,1.21
2019-01-30T20:53:23.458Z,1.57
2019-01-30T20:55:50.290Z,1.72
2019-01-30T20:58:17.138Z,1.52
2019-01-30T21:00:43.965Z,1.53
2019-01-30T21:03:10.822Z,1.59
2019-01-30T21:05:37.660Z,1.41
2019-01-30T21:08:05.337Z,1.39
2019-01-30T21:10:35.467Z,1.61
2019-01-30T21:13:02.314Z,1.09
2019-01-30T21:15:29.157Z,1.46
2019-01-30T21:17:56.057Z,1.33
2019-01-30T21:20:22.892Z,1.22
2019-01-30T21:22:49.737Z,1.75
2019-01-30T21:25:18.031Z,1.34
2019-01-30T21:27:44.902Z,1.65
2019-01-30T21:30:14.470Z,1.17
2019-01-30T21:32:41.331Z,1.70
2019-01-30T21:35:08.194Z,1.72
2019-01-30T21:37:35.076Z,1.75
2019-01-30T21:40:01.973Z,1.40
2019-01-30T21:42:28.885Z,1.43
2019-01-30T21:44:55.709Z,1.09
2019-01-30T21:47:22.551Z,1.29
2019-01-30T21:49:49.381Z,0.98
2019-01-30T21:52:16.231Z,1.02
2019-01-30T21:54:43.070Z,0.68
2019-01-30T21:57:09.910Z,0.78
2019-01-30T21:59:36.737Z,0.93
2019-01-30T22:02:08.532Z,0.77
2019-01-30T22:04:30.447Z,0.90
2019-01-30T22:06:57.379Z,0.72
2019-01-30T22:09:24.231Z,0.63
2019-01-30T22:11:51.070Z,0.99
2019-01-30T22:14:17.910Z,0.75
2019-01-30T22:16:44.737Z,1.04
2019-01-30T22:19:11.590Z,0.78
2019-01-30T22:21:38.466Z,1.07
2019-01-30T22:24:06.004Z,1.13
2019-01-30T22:26:32.166Z,1.10
2019-01-30T22:28:59.018Z,0.66
2019-01-30T22:31:25.843Z,1.11
2019-01-30T22:33:52.710Z,0.78
2019-01-30T22:36:19.542Z,1.20
2019-01-30T22:38:46.394Z,0.90
2019-01-30T22:41:13.230Z,1.34
2019-01-30T22:43:40.082Z,0.83
2019-01-30T22:46:06.909Z,1.42
2019-01-30T22:48:33.802Z,1.06
2019-01-30T22:51:00.637Z,1.37
2019-01-30T22:53:27.485Z,1.43
2019-01-30T22:55:54.317Z,0.99
2019-01-30T22:58:21.168Z,1.31
2019-01-30T23:01:10.126Z,0.81
2019-01-30T23:04:00.686Z,1.31
2019-01-30T23:06:49.673Z,0.71
2019-01-30T23:09:52.753Z,1.19
2019-01-30T23:12:35.020Z,0.50
2019-01-30T23:15:08.798Z,1.02
2019-01-30T23:18:02.622Z,0.47
2019-01-30T23:20:37.426Z,1.01
2019-01-30T23:23:23.459Z,0.49
2019-01-30T23:25:59.278Z,1.09
2019-01-30T23:28:53.618Z,0.31
2019-01-30T23:31:44.194Z,0.95
2019-01-30T23:34:36.354Z,0.18
2019-01-30T23:37:21.949Z,0.86
2019-01-30T23:40:00.410Z,0.29
2019-01-30T23:42:40.686Z,0.71
2019-01-30T23:45:24.945Z,0.70
2019-01-30T23:48:19.930Z,0.24
2019-01-30T23:50:59.600Z,0.43
2019-01-30T23:53:52.110Z,0.05
2019-01-30T23:56:48.601Z,0.24
2019-01-30T23:59:38.958Z,-0.06
